createdAt,value
2023-01-12T00:02:33.718Z,8.74
2023-01-12T00:05:22.168Z,8.95
2023-01-12T00:08:10.656Z,8.98
2023-01-12T00:10:59.131Z,8.97
2023-01-12T00:13:49.117Z,8.96
2023-01-12T00:16:41.327Z,9.04
2023-01-12T00:19:29.986Z,8.93
2023-01-12T00:22:19.223Z,8.93
2023-01-12T00:25:08.639Z,8.87
2023-01-12T00:27:57.154Z,9.03
2023-01-12T00:30:47.061Z,9.01
2023-01-12T00:33:35.876Z,8.98
2023-01-12T00:36:24.392Z,8.95
2023-01-12T00:39:13.116Z,9.00
2023-01-12T00:42:18.872Z,9.09
2023-01-12T00:45:25.356Z,9.11
2023-01-12T00:48:15.609Z,9.09
2023-01-12T00:51:05.138Z,9.05
2023-01-12T00:53:53.654Z,9.00
2023-01-12T00:56:42.110Z,9.19
2023-01-12T00:59:30.868Z,9.23
2023-01-12T01:02:19.395Z,9.33
2023-01-12T01:05:10.135Z,9.25
2023-01-12T01:07:58.588Z,9.26
2023-01-12T01:10:47.028Z,9.22
2023-01-12T01:13:36.473Z,9.12
2023-01-12T01:16:24.952Z,9.21
2023-01-12T01:19:13.491Z,9.21
2023-01-12T01:22:03.312Z,9.28
2023-01-12T01:24:51.789Z,9.05
2023-01-12T01:27:40.342Z,9.17
2023-01-12T01:30:28.771Z,9.15
2023-01-12T01:33:17.229Z,8.91
2023-01-12T01:36:06.067Z,9.11
2023-01-12T01:38:55.958Z,8.66
2023-01-12T01:41:44.443Z,9.21
2023-01-12T01:44:54.311Z,9.25
2023-01-12T01:47:45.934Z,9.29
2023-01-12T01:50:36.824Z,9.39
2023-01-12T01:53:27.140Z,9.47
2023-01-12T01:56:20.609Z,9.45
2023-01-12T01:59:12.255Z,9.41
2023-01-12T02:02:00.758Z,9.39
2023-01-12T02:04:49.410Z,9.48
2023-01-12T02:07:38.851Z,9.50
2023-01-12T02:10:27.306Z,9.51
2023-01-12T02:13:34.608Z,9.57
2023-01-12T02:16:25.702Z,9.62
2023-01-12T02:19:35.658Z,9.46
2023-01-12T02:22:41.047Z,9.52
2023-01-12T02:26:10.748Z,9.53
2023-01-12T02:29:32.518Z,9.50
2023-01-12T02:32:27.996Z,9.49
2023-01-12T02:35:21.332Z,9.50
2023-01-12T02:38:15.765Z,9.50
2023-01-12T02:41:09.471Z,9.48
2023-01-12T02:43:57.230Z,9.64
2023-01-12T02:46:49.710Z,9.50
2023-01-12T02:49:46.029Z,9.46
2023-01-12T02:52:34.958Z,9.49
2023-01-12T02:55:24.956Z,9.46
2023-01-12T02:58:15.743Z,9.38
2023-01-12T03:01:05.336Z,9.35
2023-01-12T03:03:55.655Z,9.43
2023-01-12T03:06:47.268Z,9.43
2023-01-12T03:09:39.716Z,9.40
2023-01-12T03:12:30.390Z,9.34
2023-01-12T03:15:19.392Z,9.36
2023-01-12T03:18:13.490Z,9.41
2023-01-12T03:21:04.909Z,9.40
2023-01-12T03:23:57.727Z,9.42
2023-01-12T03:26:48.625Z,9.38
2023-01-12T03:29:39.002Z,9.34
2023-01-12T03:32:28.034Z,9.19
2023-01-12T03:35:16.939Z,9.20
2023-01-12T03:38:08.677Z,9.20
2023-01-12T03:41:03.659Z,9.18
2023-01-12T03:43:53.512Z,9.32
2023-01-12T03:46:45.658Z,9.25
2023-01-12T03:49:38.033Z,9.40
2023-01-12T03:52:27.192Z,9.46
2023-01-12T03:55:18.120Z,9.50
2023-01-12T03:58:08.081Z,9.50
2023-01-12T04:00:56.686Z,9.43
2023-01-12T04:03:45.315Z,9.40
2023-01-12T04:06:33.778Z,9.35
2023-01-12T04:09:22.970Z,9.41
2023-01-12T04:12:11.457Z,9.40
2023-01-12T04:15:01.389Z,9.48
2023-01-12T04:17:49.881Z,9.45
2023-01-12T04:20:38.591Z,9.48
2023-01-12T04:23:26.072Z,8.56
2023-01-12T04:26:17.376Z,9.46
2023-01-12T04:29:05.922Z,9.28
2023-01-12T04:31:55.950Z,9.41
2023-01-12T04:34:45.086Z,9.39
2023-01-12T04:37:33.852Z,9.41
2023-01-12T04:40:22.366Z,9.48
2023-01-12T04:43:12.025Z,9.21
2023-01-12T04:46:05.123Z,9.42
2023-01-12T04:48:54.995Z,9.35
2023-01-12T04:51:43.497Z,9.36
2023-01-12T04:54:31.992Z,9.50
2023-01-12T04:57:20.465Z,9.45
2023-01-12T05:00:10.361Z,9.44
2023-01-12T05:03:02.221Z,9.34
2023-01-12T05:05:52.130Z,9.34
2023-01-12T05:08:58.202Z,9.36
2023-01-12T05:11:46.630Z,9.38
2023-01-12T05:14:35.254Z,9.27
2023-01-12T05:17:23.734Z,9.21
2023-01-12T05:20:12.981Z,9.30
2023-01-12T05:23:02.929Z,9.19
2023-01-12T05:25:51.439Z,9.17
2023-01-12T05:28:39.861Z,9.18
2023-01-12T05:31:28.370Z,9.17
2023-01-12T05:34:19.279Z,9.09
2023-01-12T05:37:07.738Z,9.11
2023-01-12T05:39:57.564Z,9.07
2023-01-12T05:43:03.843Z,9.13
2023-01-12T05:45:52.439Z,9.12
2023-01-12T05:48:40.979Z,9.04
2023-01-12T05:51:30.856Z,9.22
2023-01-12T05:54:19.334Z,9.10
2023-01-12T05:57:09.177Z,9.22
2023-01-12T05:59:58.010Z,9.01
2023-01-12T06:02:46.906Z,9.37
2023-01-12T06:05:35.388Z,9.36
2023-01-12T06:08:23.869Z,9.34
2023-01-12T06:11:32.548Z,9.41
2023-01-12T06:14:21.405Z,9.48
2023-01-12T06:17:09.865Z,9.51
2023-01-12T06:19:58.589Z,9.57
2023-01-12T06:22:47.069Z,9.59
2023-01-12T06:25:35.648Z,9.61
2023-01-12T06:28:24.241Z,9.71
2023-01-12T06:31:15.112Z,9.70
2023-01-12T06:34:03.624Z,9.70
2023-01-12T06:36:52.163Z,9.71
2023-01-12T06:39:40.588Z,9.82
2023-01-12T06:42:32.934Z,9.90
2023-01-12T06:45:21.440Z,9.76
2023-01-12T06:48:11.361Z,9.93
2023-01-12T06:51:01.817Z,9.95
2023-01-12T06:53:50.289Z,10.03
2023-01-12T06:56:38.775Z,9.67
2023-01-12T06:59:27.232Z,9.87
2023-01-12T07:02:17.106Z,10.04
2023-01-12T07:05:07.428Z,10.03
2023-01-12T07:08:00.192Z,10.05
2023-01-12T07:10:48.656Z,10.04
2023-01-12T07:13:37.206Z,10.07
2023-01-12T07:16:25.794Z,9.97
2023-01-12T07:19:14.580Z,10.32
2023-01-12T07:22:04.436Z,10.44
2023-01-12T07:24:52.935Z,10.43
2023-01-12T07:27:46.391Z,10.59
2023-01-12T07:30:34.877Z,10.52
2023-01-12T07:33:23.370Z,10.53
2023-01-12T07:36:11.901Z,10.68
2023-01-12T07:39:01.734Z,10.58
2023-01-12T07:42:07.716Z,10.51
2023-01-12T07:44:56.317Z,10.49
2023-01-12T07:47:44.818Z,10.46
2023-01-12T07:50:33.562Z,10.36
2023-01-12T07:53:22.190Z,10.22
2023-01-12T08:08:35.624Z,10.30
2023-01-12T08:11:25.592Z,10.32
2023-01-12T08:14:24.523Z,10.25
2023-01-12T08:17:17.614Z,10.10
2023-01-12T08:20:11.250Z,10.33
2023-01-12T08:23:01.992Z,10.25
2023-01-12T08:25:56.739Z,10.27
2023-01-12T08:28:47.444Z,9.97
2023-01-12T08:31:36.962Z,10.16
2023-01-12T08:34:25.446Z,10.10
2023-01-12T08:37:17.203Z,10.18
2023-01-12T08:40:08.589Z,10.12
2023-01-12T08:42:58.437Z,10.22
2023-01-12T08:45:46.962Z,10.19
2023-01-12T08:48:36.069Z,10.32
2023-01-12T08:51:24.624Z,10.29
2023-01-12T08:54:15.227Z,10.33
2023-01-12T08:57:05.022Z,10.31
2023-01-12T08:59:54.934Z,10.34
2023-01-12T09:02:43.433Z,10.36
2023-01-12T09:05:31.890Z,10.39
2023-01-12T09:08:20.455Z,10.24
2023-01-12T09:11:09.948Z,10.37
2023-01-12T09:13:58.918Z,10.36
2023-01-12T09:16:49.505Z,10.44
2023-01-12T09:19:38.022Z,10.43
2023-01-12T09:22:26.470Z,10.39
2023-01-12T09:25:15.337Z,10.46
2023-01-12T09:28:03.868Z,10.48
2023-01-12T09:30:52.428Z,10.50
2023-01-12T09:33:42.999Z,10.55
2023-01-12T09:36:33.425Z,10.55
2023-01-12T09:39:27.681Z,10.56
2023-01-12T09:42:37.293Z,10.54
2023-01-12T09:45:43.642Z,10.57
2023-01-12T09:48:32.256Z,10.49
2023-01-12T09:51:26.919Z,10.69
2023-01-12T09:54:15.422Z,10.64
2023-01-12T09:57:20.620Z,10.73
2023-01-12T10:00:18.698Z,10.74
2023-01-12T10:03:13.785Z,10.78
2023-01-12T10:06:03.062Z,10.60
2023-01-12T10:08:55.291Z,10.79
2023-01-12T10:11:49.016Z,10.76
2023-01-12T10:14:56.959Z,10.86
2023-01-12T10:17:52.032Z,10.92
2023-01-12T10:20:43.367Z,10.92
2023-01-12T10:23:31.953Z,10.90
2023-01-12T10:26:24.424Z,10.95
2023-01-12T10:29:13.370Z,10.87
2023-01-12T10:32:01.941Z,10.98
2023-01-12T10:34:51.618Z,11.04
2023-01-12T10:37:45.188Z,11.12
2023-01-12T10:40:35.095Z,10.99
2023-01-12T10:43:31.888Z,11.11
2023-01-12T10:46:23.492Z,11.13
2023-01-12T10:49:19.744Z,11.04
2023-01-12T10:52:11.251Z,11.15
2023-01-12T10:54:59.777Z,11.16
2023-01-12T10:57:49.722Z,11.54
2023-01-12T11:00:39.620Z,11.99
2023-01-12T11:03:37.245Z,11.90
2023-01-12T11:06:28.394Z,12.14
2023-01-12T11:09:23.969Z,12.19
2023-01-12T11:12:23.558Z,12.16
2023-01-12T11:15:17.969Z,12.44
2023-01-12T11:18:29.551Z,12.38
2023-01-12T11:21:19.799Z,12.59
2023-01-12T11:24:14.195Z,12.55
2023-01-12T11:27:04.278Z,12.21
2023-01-12T11:29:57.506Z,12.47
2023-01-12T11:32:50.873Z,12.38
2023-01-12T11:35:45.144Z,12.19
2023-01-12T11:38:37.152Z,12.44
2023-01-12T11:41:29.496Z,12.31
2023-01-12T11:44:21.203Z,12.33
2023-01-12T11:47:12.640Z,12.35
2023-01-12T11:50:04.773Z,12.23
2023-01-12T11:52:55.855Z,12.11
2023-01-12T11:55:56.414Z,11.98
2023-01-12T11:58:51.594Z,12.00
2023-01-12T12:01:47.068Z,12.13
2023-01-12T12:04:46.990Z,12.18
2023-01-12T12:07:45.244Z,12.25
2023-01-12T12:10:38.551Z,12.04
2023-01-12T12:13:34.176Z,12.21
2023-01-12T12:16:30.048Z,11.51
2023-01-12T12:19:25.836Z,11.92
2023-01-12T12:22:24.283Z,11.95
2023-01-12T12:25:21.546Z,11.96
2023-01-12T12:28:38.648Z,11.99
2023-01-12T12:31:40.938Z,12.07
2023-01-12T12:35:05.476Z,12.08
2023-01-12T12:38:01.437Z,11.98
2023-01-12T12:41:20.504Z,11.91
2023-01-12T12:44:40.932Z,11.99
2023-01-12T12:47:47.580Z,12.13
2023-01-12T12:50:39.696Z,12.07
2023-01-12T12:53:30.625Z,12.27
2023-01-12T12:56:20.597Z,11.54
2023-01-12T12:59:53.049Z,12.29
2023-01-12T13:02:54.686Z,12.22
2023-01-12T13:05:45.036Z,12.25
2023-01-12T13:08:35.577Z,12.24
2023-01-12T13:11:50.335Z,12.23
2023-01-12T13:14:41.831Z,12.28
2023-01-12T13:17:44.600Z,12.22
2023-01-12T13:20:39.484Z,12.27
2023-01-12T13:23:52.130Z,12.41
2023-01-12T13:26:43.182Z,12.37
2023-01-12T13:29:47.833Z,12.26
2023-01-12T13:32:56.480Z,12.49
2023-01-12T13:36:01.186Z,12.45
2023-01-12T13:39:06.853Z,12.50
2023-01-12T13:42:12.644Z,12.36
2023-01-12T13:45:03.321Z,12.19
2023-01-12T13:47:53.081Z,12.22
2023-01-12T13:50:48.162Z,12.01
2023-01-12T13:53:36.666Z,12.18
2023-01-12T13:56:25.131Z,12.20
2023-01-12T13:59:18.151Z,11.37
2023-01-12T14:02:18.121Z,12.12
2023-01-12T14:05:18.185Z,12.14
2023-01-12T14:08:20.221Z,12.02
2023-01-12T14:11:20.487Z,11.83
2023-01-12T14:14:40.809Z,11.89
2023-01-12T14:17:50.192Z,11.74
2023-01-12T14:20:44.395Z,11.93
2023-01-12T14:23:34.182Z,11.92
2023-01-12T14:26:26.997Z,11.92
2023-01-12T14:29:15.823Z,11.87
2023-01-12T14:32:04.445Z,11.99
2023-01-12T14:34:54.364Z,11.99
2023-01-12T14:37:42.961Z,11.99
2023-01-12T14:40:33.089Z,11.97
2023-01-12T14:43:39.497Z,11.90
2023-01-12T14:46:38.314Z,11.77
2023-01-12T14:49:28.718Z,11.93
2023-01-12T14:52:27.449Z,12.00
2023-01-12T14:55:17.851Z,11.79
2023-01-12T14:58:07.155Z,11.75
2023-01-12T15:00:55.671Z,11.88
2023-01-12T15:03:48.336Z,11.81
2023-01-12T15:06:39.977Z,11.83
2023-01-12T15:09:32.200Z,11.83
2023-01-12T15:12:42.902Z,11.85
2023-01-12T15:15:52.996Z,11.79
2023-01-12T15:18:59.313Z,11.71
2023-01-12T15:22:05.202Z,11.72
2023-01-12T15:25:14.024Z,11.55
2023-01-12T15:28:03.105Z,10.86
2023-01-12T15:30:52.900Z,11.60
2023-01-12T15:33:41.492Z,11.65
2023-01-12T15:36:30.041Z,11.60
2023-01-12T15:39:18.605Z,11.52
2023-01-12T15:42:17.945Z,11.53
2023-01-12T15:45:17.963Z,11.53
2023-01-12T15:48:07.396Z,11.50
2023-01-12T15:50:55.806Z,11.57
2023-01-12T15:53:44.283Z,11.56
2023-01-12T15:56:34.937Z,11.40
2023-01-12T15:59:24.798Z,11.53
2023-01-12T16:02:25.041Z,11.50
2023-01-12T16:05:13.966Z,11.57
2023-01-12T16:08:02.557Z,11.58
2023-01-12T16:11:05.004Z,11.52
2023-01-12T16:13:54.160Z,11.55
2023-01-12T16:16:44.081Z,11.59
2023-01-12T16:19:33.718Z,11.58
2023-01-12T16:22:25.233Z,11.59
2023-01-12T16:25:14.607Z,11.61
2023-01-12T16:28:03.114Z,11.62
2023-01-12T16:30:52.808Z,11.68
2023-01-12T16:33:43.843Z,11.67
2023-01-12T16:36:32.329Z,11.70
2023-01-12T16:39:20.812Z,11.63
2023-01-12T16:42:09.693Z,11.70
2023-01-12T16:44:59.036Z,11.66
2023-01-12T16:47:47.828Z,11.62
2023-01-12T16:50:41.387Z,11.33
2023-01-12T16:53:29.913Z,11.51
2023-01-12T16:56:18.367Z,11.44
2023-01-12T16:59:07.939Z,11.38
2023-01-12T17:01:56.602Z,11.49
2023-01-12T17:04:45.774Z,11.45
2023-01-12T17:07:35.865Z,11.49
2023-01-12T17:10:24.474Z,11.51
2023-01-12T17:13:13.052Z,11.54
2023-01-12T17:16:01.813Z,11.44
2023-01-12T17:18:51.018Z,11.51
2023-01-12T17:21:39.760Z,11.54
2023-01-12T17:24:30.227Z,11.57
2023-01-12T17:27:20.044Z,11.61
2023-01-12T17:30:09.752Z,11.59
2023-01-12T17:32:58.313Z,11.57
2023-01-12T17:35:46.742Z,11.56
2023-01-12T17:38:36.823Z,11.55
2023-01-12T17:41:44.061Z,11.55
2023-01-12T17:44:32.519Z,11.54
2023-01-12T17:47:21.314Z,11.38
2023-01-12T17:50:11.327Z,11.52
2023-01-12T17:53:00.408Z,11.05
2023-01-12T17:55:50.400Z,11.52
2023-01-12T17:58:41.834Z,11.48
2023-01-12T18:01:32.335Z,11.47
2023-01-12T18:04:21.574Z,11.45
2023-01-12T18:07:10.128Z,11.48
2023-01-12T18:09:58.631Z,11.45
2023-01-12T18:12:47.188Z,11.45
2023-01-12T18:15:37.044Z,11.40
2023-01-12T18:18:25.947Z,11.47
2023-01-12T18:21:15.875Z,11.43
2023-01-12T18:24:04.479Z,11.35
2023-01-12T18:26:52.994Z,11.42
2023-01-12T18:29:42.149Z,11.39
2023-01-12T18:32:31.982Z,11.36
2023-01-12T18:35:20.487Z,11.36
2023-01-12T18:38:09.012Z,11.37
2023-01-12T18:41:29.781Z,11.35
2023-01-12T18:44:18.305Z,11.32
2023-01-12T18:47:24.313Z,11.38
2023-01-12T18:50:31.813Z,11.37
2023-01-12T18:53:25.022Z,11.32
2023-01-12T18:56:13.965Z,11.41
2023-01-12T18:59:04.186Z,11.44
2023-01-12T19:01:52.746Z,10.76
2023-01-12T19:05:02.392Z,11.41
2023-01-12T19:08:15.534Z,11.37
2023-01-12T19:11:11.138Z,11.39
2023-01-12T19:14:17.109Z,11.46
2023-01-12T19:17:23.193Z,11.49
2023-01-12T19:20:14.922Z,11.44
2023-01-12T19:23:22.011Z,11.29
2023-01-12T19:26:28.560Z,11.46
2023-01-12T19:29:17.027Z,11.46
2023-01-12T19:32:05.767Z,11.48
2023-01-12T19:35:02.288Z,11.50
2023-01-12T19:37:54.644Z,11.48
2023-01-12T19:40:48.429Z,11.52
2023-01-12T19:43:37.740Z,11.50
2023-01-12T19:46:26.285Z,11.51
2023-01-12T19:49:16.846Z,11.51
2023-01-12T19:52:05.445Z,11.52
2023-01-12T19:54:53.899Z,11.52
2023-01-12T19:57:44.108Z,11.53
2023-01-12T20:00:32.554Z,11.56
2023-01-12T20:03:22.477Z,11.48
2023-01-12T20:06:10.928Z,11.49
2023-01-12T20:08:59.387Z,11.55
2023-01-12T20:11:52.613Z,11.55
2023-01-12T20:14:42.585Z,11.39
2023-01-12T20:17:31.162Z,11.56
2023-01-12T20:20:19.992Z,11.51
2023-01-12T20:23:08.455Z,11.62
2023-01-12T20:25:56.919Z,11.69
2023-01-12T20:28:45.395Z,11.58
2023-01-12T20:31:35.852Z,11.57
2023-01-12T20:34:24.522Z,11.24
2023-01-12T20:37:13.664Z,11.48
2023-01-12T20:40:02.957Z,11.57
2023-01-12T20:42:51.467Z,11.62
2023-01-12T20:45:41.425Z,11.62
2023-01-12T20:48:31.304Z,11.64
2023-01-12T20:51:19.729Z,11.62
2023-01-12T20:54:08.352Z,11.61
2023-01-12T20:56:58.659Z,11.61
2023-01-12T20:59:48.492Z,11.61
2023-01-12T21:02:37.145Z,11.58
2023-01-12T21:05:27.022Z,11.54
2023-01-12T21:08:16.469Z,11.59
2023-01-12T21:11:05.181Z,11.61
2023-01-12T21:13:53.706Z,11.65
2023-01-12T21:16:42.272Z,11.64
2023-01-12T21:19:30.932Z,11.63
2023-01-12T21:22:21.055Z,11.68
2023-01-12T21:25:12.657Z,11.67
2023-01-12T21:28:01.185Z,11.72
2023-01-12T21:30:50.031Z,11.70
2023-01-12T21:33:38.519Z,11.67
2023-01-12T21:36:27.088Z,11.73
2023-01-12T21:39:17.160Z,11.65
2023-01-12T21:42:28.651Z,11.69
2023-01-12T21:45:17.100Z,11.79
2023-01-12T21:48:06.074Z,11.60
2023-01-12T21:50:54.492Z,11.79
2023-01-12T21:53:43.374Z,11.23
2023-01-12T21:56:33.216Z,11.83
2023-01-12T21:59:21.702Z,11.84
2023-01-12T22:02:11.628Z,11.80
2023-01-12T22:05:00.327Z,11.88
2023-01-12T22:07:49.444Z,11.83
2023-01-12T22:10:37.937Z,11.86
2023-01-12T22:13:27.769Z,11.86
2023-01-12T22:16:17.164Z,11.90
2023-01-12T22:19:05.723Z,11.97
2023-01-12T22:21:54.143Z,11.95
2023-01-12T22:24:42.668Z,11.93
2023-01-12T22:27:32.093Z,11.94
2023-01-12T22:30:24.061Z,11.95
2023-01-12T22:33:15.811Z,12.01
2023-01-12T22:36:05.250Z,11.93
2023-01-12T22:38:53.723Z,12.02
2023-01-12T22:41:42.276Z,11.97
2023-01-12T22:44:30.750Z,11.92
2023-01-12T22:47:20.604Z,12.05
2023-01-12T22:50:10.543Z,12.09
2023-01-12T22:52:59.041Z,12.09
2023-01-12T22:55:47.584Z,12.02
2023-01-12T22:58:36.139Z,12.09
2023-01-12T23:01:28.185Z,12.07
2023-01-12T23:04:18.117Z,12.04
2023-01-12T23:07:06.588Z,12.04
2023-01-12T23:09:55.073Z,12.04
2023-01-12T23:13:04.328Z,12.02
2023-01-12T23:15:56.492Z,11.98
2023-01-12T23:18:46.535Z,11.84
2023-01-12T23:21:36.946Z,11.09
2023-01-12T23:24:25.408Z,11.95
2023-01-12T23:27:13.831Z,11.90
2023-01-12T23:30:02.317Z,11.98
2023-01-12T23:32:50.751Z,12.01
2023-01-12T23:35:40.640Z,11.81
2023-01-12T23:38:30.428Z,11.84
2023-01-12T23:41:20.785Z,11.92
2023-01-12T23:44:11.249Z,11.80
2023-01-12T23:47:03.741Z,11.93
2023-01-12T23:49:52.204Z,11.93
2023-01-12T23:52:40.792Z,11.92
2023-01-12T23:55:30.674Z,11.93
2023-01-12T23:58:19.190Z,11.87
